Time;durP1;ratioP1;P1;durP2;ratioP2;P2;SDS_P1;SDS_P2;PMS_P1;PMS_P2;Temp;Humidity;BMP_temperature;BMP_pressure;BME280_temperature;BME280_humidity;BME280_pressure;Samples;Min_cycle;Max_cycle;Signal;HPM_P1;HPM_P2
2024/03/03 00:00:48;;;;;;;0.00;0.00;;;24.40;46.20;;;;;;5020290;28;20211;-41
2024/03/03 00:03:18;;;;;;;0.00;0.00;;;24.40;46.20;;;;;;5023946;28;20203;-45
2024/03/03 00:05:49;;;;;;;0.00;0.00;;;24.50;46.20;;;;;;5031124;28;20283;-43
2024/03/03 00:08:23;;;;;;;0.00;0.00;;;24.50;46.20;;;;;;5031118;28;20228;-43
2024/03/03 00:10:54;;;;;;;0.00;0.00;;;24.50;46.10;;;;;;5031303;28;20218;-45
2024/03/03 00:13:24;;;;;;;0.00;0.00;;;24.50;46.10;;;;;;5031428;28;20459;-45
2024/03/03 00:15:55;;;;;;;0.00;0.00;;;24.50;46.10;;;;;;5031385;28;20567;-45
2024/03/03 00:18:26;;;;;;;0.00;0.00;;;24.50;46.10;;;;;;5031128;28;20200;-45
2024/03/03 00:20:56;;;;;;;0.00;0.00;;;24.60;46.10;;;;;;5030723;28;20231;-44
2024/03/03 00:23:29;;;;;;;0.00;0.00;;;24.50;45.90;;;;;;5031031;28;20200;-43
2024/03/03 00:26:00;;;;;;;0.00;0.00;;;24.60;45.90;;;;;;5030942;28;20704;-43
2024/03/03 00:28:30;;;;;;;0.00;0.00;;;24.60;45.90;;;;;;5031421;28;20303;-41
2024/03/03 00:31:01;;;;;;;0.05;0.05;;;24.60;45.90;;;;;;5031308;28;20759;-47
2024/03/03 00:33:32;;;;;;;0.00;0.00;;;24.60;45.90;;;;;;5030936;28;20192;-44
2024/03/03 00:36:05;;;;;;;0.10;0.10;;;24.60;45.80;;;;;;5031192;28;20648;-44
2024/03/03 00:38:38;;;;;;;0.00;0.00;;;24.60;45.60;;;;;;5031798;28;20196;-43
2024/03/03 00:41:08;;;;;;;0.00;0.00;;;24.60;45.60;;;;;;5030279;28;20216;-41
2024/03/03 00:43:39;;;;;;;0.08;0.08;;;24.60;45.50;;;;;;5027655;28;20192;-42
2024/03/03 00:46:10;;;;;;;0.00;0.00;;;24.60;45.40;;;;;;5030857;28;20196;-43
2024/03/03 00:48:40;;;;;;;0.00;0.00;;;24.70;45.40;;;;;;5030605;28;20227;-46
2024/03/03 00:51:11;;;;;;;0.00;0.00;;;24.60;45.30;;;;;;5030974;28;20567;-47
2024/03/03 00:53:43;;;;;;;0.00;0.00;;;24.60;45.30;;;;;;5031418;28;20209;-47
2024/03/03 00:56:14;;;;;;;0.10;0.10;;;24.60;45.40;;;;;;5010883;28;20193;-41
2024/03/03 00:58:45;;;;;;;0.05;0.05;;;24.60;45.40;;;;;;5010934;28;20196;-42
2024/03/03 01:01:17;;;;;;;0.00;0.00;;;24.70;45.40;;;;;;5011164;28;20227;-42
2024/03/03 01:03:48;;;;;;;0.00;0.00;;;24.70;45.40;;;;;;5011925;28;20205;-48
2024/03/03 01:06:19;;;;;;;0.10;0.10;;;24.70;45.40;;;;;;5012067;28;20565;-43
2024/03/03 01:08:51;;;;;;;0.00;0.00;;;24.70;45.30;;;;;;5014506;28;20232;-47
2024/03/03 01:11:22;;;;;;;0.00;0.00;;;24.70;45.30;;;;;;5014963;28;20217;-43
2024/03/03 01:13:53;;;;;;;0.03;0.03;;;24.70;45.30;;;;;;5015032;28;20200;-42
2024/03/03 01:16:23;;;;;;;0.10;0.10;;;24.70;45.30;;;;;;5014894;28;20208;-43
2024/03/03 01:18:54;;;;;;;0.10;0.10;;;24.80;45.30;;;;;;5014493;28;20200;-45
2024/03/03 01:21:25;;;;;;;0.00;0.00;;;24.80;45.30;;;;;;5014776;28;20220;-45
2024/03/03 01:23:57;;;;;;;0.00;0.00;;;24.80;45.30;;;;;;5016192;28;20203;-42
2024/03/03 01:26:28;;;;;;;0.00;0.00;;;24.80;45.20;;;;;;5034493;28;21037;-43
2024/03/03 01:28:59;;;;;;;0.00;0.00;;;24.80;45.10;;;;;;5034401;28;20299;-45
2024/03/03 01:31:29;;;;;;;0.00;0.00;;;24.80;45.10;;;;;;5034261;28;20224;-48
2024/03/03 01:34:00;;;;;;;0.00;0.00;;;24.80;45.00;;;;;;5034190;28;20196;-46
2024/03/03 01:36:31;;;;;;;0.00;0.00;;;24.80;44.80;;;;;;5034012;28;20212;-45
2024/03/03 01:39:03;;;;;;;0.00;0.00;;;24.80;44.80;;;;;;5035550;28;20645;-47
2024/03/03 01:41:34;;;;;;;0.00;0.00;;;24.90;44.90;;;;;;5030452;28;20700;-47
2024/03/03 01:44:05;;;;;;;0.00;0.00;;;24.90;44.80;;;;;;5016011;28;20186;-42
2024/03/03 01:46:35;;;;;;;0.00;0.00;;;24.90;44.80;;;;;;5013626;28;20203;-43
2024/03/03 01:49:06;;;;;;;0.00;0.00;;;24.90;44.80;;;;;;5013826;28;20228;-43
2024/03/03 01:51:38;;;;;;;0.00;0.00;;;24.90;44.80;;;;;;5013754;28;20216;-48
2024/03/03 01:54:11;;;;;;;0.03;0.03;;;24.90;44.80;;;;;;5016689;28;20220;-47
2024/03/03 01:56:44;;;;;;;0.00;0.00;;;24.90;44.80;;;;;;5033938;28;20207;-45
2024/03/03 01:59:15;;;;;;;0.00;0.00;;;24.90;44.80;;;;;;5033706;28;20295;-44
2024/03/03 02:01:46;;;;;;;0.10;0.10;;;24.90;44.90;;;;;;5033330;28;20227;-46
2024/03/03 02:04:18;;;;;;;0.00;0.00;;;24.90;44.80;;;;;;5033597;28;20192;-45
2024/03/03 02:06:49;;;;;;;0.10;0.10;;;25.00;44.70;;;;;;5033260;28;20199;-45
2024/03/03 02:09:22;;;;;;;0.00;0.00;;;25.00;44.60;;;;;;5024908;28;20620;-45
2024/03/03 02:11:53;;;;;;;0.00;0.00;;;25.00;44.60;;;;;;5033904;28;20207;-46
2024/03/03 02:14:27;;;;;;;0.00;0.00;;;25.00;44.50;;;;;;5033837;28;20204;-44
2024/03/03 02:16:58;;;;;;;0.00;0.00;;;25.00;44.30;;;;;;5033515;28;20200;-44
2024/03/03 02:19:34;;;;;;;0.00;0.00;;;25.00;44.30;;;;;;5013203;28;20461;-45
2024/03/03 02:22:07;;;;;;;0.00;0.00;;;25.00;44.30;;;;;;5013712;28;20196;-47
2024/03/03 02:24:37;;;;;;;0.00;0.00;;;25.00;44.30;;;;;;5020404;28;20220;-44
2024/03/03 02:27:09;;;;;;;0.00;0.00;;;25.00;44.30;;;;;;5033693;28;20196;-46
2024/03/03 02:29:39;;;;;;;0.00;0.00;;;25.00;44.40;;;;;;5033305;28;20226;-45
2024/03/03 02:32:10;;;;;;;0.00;0.00;;;25.00;44.40;;;;;;5032585;28;20200;-44
2024/03/03 02:34:41;;;;;;;0.00;0.00;;;25.00;44.40;;;;;;5033039;28;20219;-47
2024/03/03 02:37:13;;;;;;;0.00;0.00;;;25.00;44.40;;;;;;5033619;28;20204;-45
2024/03/03 02:39:44;;;;;;;0.00;0.00;;;25.00;44.50;;;;;;5032723;28;20672;-44
2024/03/03 02:42:14;;;;;;;0.00;0.00;;;25.00;44.40;;;;;;5032724;28;20200;-42
2024/03/03 02:44:45;;;;;;;0.00;0.00;;;25.00;44.50;;;;;;5029738;28;20712;-45
2024/03/03 02:47:16;;;;;;;0.00;0.00;;;25.00;44.50;;;;;;5032999;28;20200;-47
2024/03/03 02:49:46;;;;;;;0.10;0.10;;;25.10;44.60;;;;;;5032835;28;20715;-44
2024/03/03 02:52:19;;;;;;;0.00;0.00;;;25.00;44.50;;;;;;5033184;28;20198;-42
2024/03/03 02:54:50;;;;;;;0.00;0.00;;;25.10;44.40;;;;;;5032777;28;20193;-41
2024/03/03 02:57:20;;;;;;;0.00;0.00;;;25.10;44.30;;;;;;5032566;28;20196;-43
2024/03/03 02:59:51;;;;;;;0.00;0.00;;;25.10;44.20;;;;;;5032364;28;20672;-44
2024/03/03 03:02:22;;;;;;;0.00;0.00;;;25.10;44.10;;;;;;5032738;28;20203;-41
2024/03/03 03:04:53;;;;;;;0.00;0.00;;;25.10;44.10;;;;;;5032545;28;20197;-46
2024/03/03 03:07:26;;;;;;;0.00;0.00;;;25.10;43.90;;;;;;5031884;28;20196;-43
2024/03/03 03:09:57;;;;;;;0.00;0.00;;;25.10;44.00;;;;;;5031708;28;20687;-48
2024/03/03 03:12:27;;;;;;;0.00;0.00;;;25.10;44.00;;;;;;5032444;28;20553;-46
2024/03/03 03:14:58;;;;;;;0.00;0.00;;;25.10;43.90;;;;;;5032662;28;20244;-43
2024/03/03 03:17:29;;;;;;;0.00;0.00;;;25.10;43.80;;;;;;5032563;28;20192;-44
2024/03/03 03:19:59;;;;;;;0.00;0.00;;;25.10;43.90;;;;;;5032343;28;20584;-42
2024/03/03 03:22:32;;;;;;;0.00;0.00;;;25.10;43.80;;;;;;5032375;28;20598;-46
2024/03/03 03:25:04;;;;;;;0.00;0.00;;;25.10;43.70;;;;;;5032119;28;20207;-43
2024/03/03 03:27:35;;;;;;;0.00;0.00;;;25.10;43.60;;;;;;5032156;28;20250;-42
2024/03/03 03:30:06;;;;;;;0.10;0.10;;;25.10;43.50;;;;;;5032398;28;20691;-47
2024/03/03 03:32:37;;;;;;;0.05;0.05;;;25.10;43.50;;;;;;5032213;28;20199;-42
2024/03/03 03:35:09;;;;;;;0.00;0.00;;;25.10;43.50;;;;;;5027813;28;20200;-45
2024/03/03 03:37:41;;;;;;;0.00;0.00;;;25.20;43.70;;;;;;5032356;23;20228;-48
2024/03/03 03:40:13;;;;;;;0.00;0.00;;;25.20;43.50;;;;;;5007288;28;20228;-49
2024/03/03 03:42:44;;;;;;;0.00;0.00;;;25.20;43.40;;;;;;5008615;28;20295;-47
2024/03/03 03:45:15;;;;;;;0.00;0.00;;;25.20;43.50;;;;;;5008044;28;20201;-48
2024/03/03 03:47:46;;;;;;;0.00;0.00;;;25.20;43.50;;;;;;5008346;28;20246;-49
2024/03/03 03:50:17;;;;;;;0.00;0.00;;;25.20;43.50;;;;;;5008253;28;20236;-48
2024/03/03 03:52:49;;;;;;;0.10;0.10;;;25.20;43.30;;;;;;5008646;28;20529;-48
2024/03/03 03:55:20;;;;;;;0.00;0.00;;;25.20;43.20;;;;;;5007847;28;20208;-47
2024/03/03 03:57:50;;;;;;;0.00;0.00;;;25.20;43.00;;;;;;5008009;28;20206;-51
2024/03/03 04:00:21;;;;;;;0.00;0.00;;;25.20;43.10;;;;;;5008145;28;20220;-47
2024/03/03 04:02:52;;;;;;;0.00;0.00;;;25.20;42.80;;;;;;5007963;28;20196;-48
2024/03/03 04:05:23;;;;;;;0.00;0.00;;;25.20;42.90;;;;;;5007387;28;20209;-47
2024/03/03 04:07:55;;;;;;;0.00;0.00;;;25.20;42.90;;;;;;5006975;28;20205;-47
2024/03/03 04:10:26;;;;;;;0.00;0.00;;;25.20;42.90;;;;;;5008058;28;20255;-50
2024/03/03 04:12:57;;;;;;;0.00;0.00;;;25.20;42.90;;;;;;5007944;28;21030;-46
2024/03/03 04:15:28;;;;;;;0.00;0.00;;;25.20;42.90;;;;;;5007540;28;20196;-45
2024/03/03 04:17:59;;;;;;;0.00;0.00;;;25.20;43.00;;;;;;4988823;28;20690;-46
2024/03/03 04:20:29;;;;;;;0.00;0.00;;;25.20;43.00;;;;;;4989012;28;20556;-46
2024/03/03 04:23:02;;;;;;;0.00;0.00;;;25.30;43.00;;;;;;4989109;28;20197;-47
2024/03/03 04:25:32;;;;;;;0.00;0.00;;;25.30;43.00;;;;;;5002172;28;20227;-47
2024/03/03 04:28:03;;;;;;;0.00;0.00;;;25.30;43.00;;;;;;5007721;28;20207;-49
2024/03/03 04:30:34;;;;;;;0.00;0.00;;;25.30;42.90;;;;;;5007115;28;20233;-48
2024/03/03 04:33:04;;;;;;;0.00;0.00;;;25.30;43.00;;;;;;5007619;28;20200;-48
2024/03/03 04:35:35;;;;;;;0.00;0.00;;;25.30;43.00;;;;;;5007857;28;20201;-47
2024/03/03 04:38:08;;;;;;;0.00;0.00;;;25.40;43.10;;;;;;5043341;23;20230;-42
2024/03/03 04:40:38;;;;;;;0.00;0.00;;;25.40;43.00;;;;;;5066903;28;20218;-42
2024/03/03 04:43:09;;;;;;;0.00;0.00;;;25.40;43.00;;;;;;5063589;28;20200;-42
2024/03/03 04:45:40;;;;;;;0.00;0.00;;;25.40;43.00;;;;;;5051625;28;20203;-41
2024/03/03 04:48:11;;;;;;;0.00;0.00;;;25.40;43.00;;;;;;5051107;28;20199;-42
2024/03/03 04:50:41;;;;;;;0.00;0.00;;;25.50;43.00;;;;;;5054629;28;20223;-43
2024/03/03 04:53:14;;;;;;;0.00;0.00;;;25.50;43.00;;;;;;5051564;28;20504;-44
2024/03/03 04:55:44;;;;;;;0.00;0.00;;;25.50;43.00;;;;;;5055403;28;20203;-43
2024/03/03 04:58:15;;;;;;;0.00;0.00;;;25.50;43.00;;;;;;5051021;28;20665;-45
2024/03/03 05:00:46;;;;;;;0.00;0.00;;;25.50;42.90;;;;;;5051378;28;20224;-43
2024/03/03 05:03:16;;;;;;;0.10;0.10;;;25.50;42.90;;;;;;5050483;28;20218;-43
2024/03/03 05:05:47;;;;;;;0.00;0.00;;;25.50;42.90;;;;;;5050690;28;20199;-43
2024/03/03 05:08:20;;;;;;;0.00;0.00;;;25.50;42.90;;;;;;5050846;28;20278;-44
2024/03/03 05:10:51;;;;;;;0.00;0.00;;;25.60;43.00;;;;;;5050677;28;20245;-42
2024/03/03 05:13:22;;;;;;;0.00;0.00;;;25.60;43.00;;;;;;5051894;28;20286;-42
2024/03/03 05:15:53;;;;;;;0.10;0.10;;;25.60;43.00;;;;;;5060138;28;20198;-42
2024/03/03 05:18:23;;;;;;;0.00;0.00;;;25.60;43.00;;;;;;5070900;28;20198;-45
2024/03/03 05:20:54;;;;;;;0.00;0.00;;;25.60;43.10;;;;;;5067646;28;20224;-44
2024/03/03 05:23:27;;;;;;;0.00;0.00;;;25.60;43.10;;;;;;5059882;28;20636;-44
2024/03/03 05:25:57;;;;;;;0.00;0.00;;;25.60;43.10;;;;;;5057807;28;20578;-45
2024/03/03 05:28:29;;;;;;;0.00;0.00;;;25.60;43.10;;;;;;5060307;28;20198;-44
2024/03/03 05:31:01;;;;;;;0.00;0.00;;;25.60;43.20;;;;;;5059809;28;20493;-43
2024/03/03 05:33:32;;;;;;;0.00;0.00;;;25.70;43.30;;;;;;5059070;28;20206;-44
2024/03/03 05:36:03;;;;;;;0.10;0.10;;;25.70;43.20;;;;;;5058654;28;20210;-45
2024/03/03 05:38:35;;;;;;;0.00;0.00;;;25.70;43.30;;;;;;5059910;28;20220;-43
2024/03/03 05:41:06;;;;;;;0.00;0.00;;;25.70;43.10;;;;;;5064504;28;20218;-45
2024/03/03 05:43:38;;;;;;;0.00;0.00;;;25.70;43.10;;;;;;5059266;28;20203;-46
2024/03/03 05:46:09;;;;;;;0.00;0.00;;;25.70;43.10;;;;;;5049605;28;20218;-44
2024/03/03 05:48:39;;;;;;;0.00;0.00;;;25.70;43.10;;;;;;5050798;28;20195;-45
2024/03/03 05:51:10;;;;;;;0.00;0.00;;;25.70;43.00;;;;;;5050344;28;20231;-46
2024/03/03 05:53:43;;;;;;;0.00;0.00;;;25.70;43.30;;;;;;5048619;28;20207;-45
2024/03/03 05:56:17;;;;;;;0.00;0.00;;;25.70;43.00;;;;;;5049629;28;20598;-46
2024/03/03 05:58:48;;;;;;;0.00;0.00;;;25.70;43.00;;;;;;5049621;28;20200;-45
2024/03/03 06:01:19;;;;;;;0.00;0.00;;;25.60;43.00;;;;;;5049623;28;20223;-42
2024/03/03 06:03:49;;;;;;;0.00;0.00;;;25.70;43.10;;;;;;5050639;28;20278;-44
2024/03/03 06:06:20;;;;;;;0.00;0.00;;;25.70;43.20;;;;;;5050217;28;20203;-43
2024/03/03 06:08:52;;;;;;;0.00;0.00;;;25.70;43.10;;;;;;5050403;28;20241;-44
2024/03/03 06:11:23;;;;;;;0.00;0.00;;;25.70;43.20;;;;;;5050281;28;20597;-44
2024/03/03 06:13:54;;;;;;;0.00;0.00;;;25.70;43.20;;;;;;5048702;28;20200;-44
2024/03/03 06:16:25;;;;;;;0.00;0.00;;;25.70;43.20;;;;;;5049398;28;20199;-43
2024/03/03 06:18:56;;;;;;;0.00;0.00;;;25.60;43.10;;;;;;5049765;28;20207;-43
2024/03/03 06:21:27;;;;;;;0.00;0.00;;;25.70;43.20;;;;;;5054730;28;20700;-45
2024/03/03 06:23:59;;;;;;;0.00;0.00;;;25.70;43.10;;;;;;5054914;28;20218;-42
2024/03/03 06:26:31;;;;;;;0.00;0.00;;;25.70;43.20;;;;;;5073205;28;20202;-42
2024/03/03 06:29:02;;;;;;;0.00;0.00;;;25.60;43.10;;;;;;5069673;28;20210;-43
2024/03/03 06:31:32;;;;;;;0.08;0.08;;;25.60;43.10;;;;;;5072251;28;20230;-44
2024/03/03 06:34:03;;;;;;;0.00;0.00;;;25.60;43.20;;;;;;5072717;28;20199;-44
2024/03/03 06:36:35;;;;;;;0.00;0.00;;;25.60;43.20;;;;;;5072379;28;20285;-44
2024/03/03 06:39:10;;;;;;;0.00;0.00;;;25.60;43.20;;;;;;5073075;28;20663;-44
2024/03/03 06:41:40;;;;;;;0.00;0.00;;;25.60;43.20;;;;;;5072470;28;20246;-46
2024/03/03 06:44:11;;;;;;;0.00;0.00;;;25.60;43.20;;;;;;5072743;28;20654;-44
2024/03/03 06:46:44;;;;;;;0.00;0.00;;;25.60;43.30;;;;;;5068701;28;20245;-44
2024/03/03 06:49:15;;;;;;;0.00;0.00;;;25.60;43.30;;;;;;5068309;28;20214;-43
2024/03/03 06:51:48;;;;;;;0.00;0.00;;;25.50;43.30;;;;;;5072367;28;20235;-43
2024/03/03 06:54:20;;;;;;;0.00;0.00;;;25.60;43.30;;;;;;5068111;28;20207;-45
2024/03/03 06:56:51;;;;;;;0.00;0.00;;;25.60;43.40;;;;;;5051979;28;20191;-44
2024/03/03 06:59:22;;;;;;;0.00;0.00;;;25.60;43.40;;;;;;5052368;28;20562;-45
2024/03/03 07:01:52;;;;;;;0.00;0.00;;;25.50;43.40;;;;;;5051719;28;20224;-44
2024/03/03 07:04:24;;;;;;;0.00;0.00;;;25.60;43.50;;;;;;5052383;28;20195;-42
2024/03/03 07:06:55;;;;;;;0.00;0.00;;;25.60;43.50;;;;;;5066749;28;20719;-43
2024/03/03 07:09:28;;;;;;;0.00;0.00;;;25.60;43.50;;;;;;5072907;28;20582;-44
2024/03/03 07:12:01;;;;;;;0.00;0.00;;;25.60;43.50;;;;;;5072245;28;20234;-43
2024/03/03 07:14:32;;;;;;;0.00;0.00;;;25.50;43.50;;;;;;5072455;28;20202;-44
2024/03/03 07:17:03;;;;;;;0.00;0.00;;;25.50;43.50;;;;;;5071783;28;20687;-43
2024/03/03 07:19:33;;;;;;;0.00;0.00;;;25.50;43.50;;;;;;5072384;28;20202;-44
2024/03/03 07:22:04;;;;;;;0.08;0.08;;;25.50;43.50;;;;;;5069905;28;20195;-43
2024/03/03 07:24:37;;;;;;;0.00;0.00;;;25.50;43.50;;;;;;5058458;28;20209;-44
2024/03/03 07:27:08;;;;;;;0.00;0.00;;;25.50;43.50;;;;;;5071759;28;20683;-42
2024/03/03 07:29:38;;;;;;;0.00;0.00;;;25.50;43.50;;;;;;5071351;28;20205;-42
2024/03/03 07:32:09;;;;;;;0.10;0.10;;;25.50;43.50;;;;;;5071329;28;20230;-42
2024/03/03 07:34:40;;;;;;;0.00;0.00;;;25.50;43.50;;;;;;5064615;28;20183;-45
2024/03/03 07:37:11;;;;;;;0.00;0.00;;;25.50;43.60;;;;;;5052157;28;20195;-44
2024/03/03 07:39:45;;;;;;;0.00;0.00;;;25.50;43.60;;;;;;5051761;28;20211;-45
2024/03/03 07:42:16;;;;;;;0.00;0.00;;;25.50;43.50;;;;;;5054195;28;20564;-48
2024/03/03 07:44:46;;;;;;;0.10;0.10;;;25.40;43.50;;;;;;5051452;28;20290;-45
2024/03/03 07:47:17;;;;;;;0.00;0.00;;;25.40;43.50;;;;;;5051665;28;20199;-45
2024/03/03 07:49:47;;;;;;;0.00;0.00;;;25.50;43.60;;;;;;5051378;28;20237;-44
2024/03/03 07:52:18;;;;;;;0.00;0.00;;;25.40;43.50;;;;;;5051650;28;20604;-43
2024/03/03 07:54:52;;;;;;;0.00;0.00;;;25.40;43.60;;;;;;5060221;28;20206;-43
2024/03/03 07:57:23;;;;;;;0.00;0.00;;;25.30;43.50;;;;;;5071543;28;20665;-42
2024/03/03 07:59:54;;;;;;;0.00;0.00;;;25.40;43.60;;;;;;5071082;28;20226;-44
2024/03/03 08:02:24;;;;;;;0.00;0.00;;;25.30;43.50;;;;;;5071954;28;20199;-45
2024/03/03 08:04:56;;;;;;;0.00;0.00;;;25.30;43.50;;;;;;5072153;28;20195;-45
2024/03/03 08:07:28;;;;;;;0.00;0.00;;;25.30;43.50;;;;;;5071898;28;20285;-45
2024/03/03 08:10:00;;;;;;;0.00;0.00;;;25.30;43.50;;;;;;5071656;28;20314;-45
2024/03/03 08:12:31;;;;;;;0.00;0.00;;;25.30;43.60;;;;;;5071256;28;20222;-45
2024/03/03 08:15:02;;;;;;;0.00;0.00;;;25.30;43.60;;;;;;5071417;28;20194;-44
2024/03/03 08:17:32;;;;;;;0.00;0.00;;;25.30;43.60;;;;;;5071034;28;20199;-44
2024/03/03 08:20:03;;;;;;;0.00;0.00;;;25.30;43.60;;;;;;5071248;28;20572;-44
2024/03/03 08:22:33;;;;;;;0.00;0.00;;;25.30;43.60;;;;;;5071514;28;20225;-44
2024/03/03 08:25:06;;;;;;;0.00;0.00;;;25.30;43.60;;;;;;5071501;28;20202;-45
2024/03/03 08:27:37;;;;;;;0.03;0.03;;;25.30;43.60;;;;;;5063394;28;20196;-45
2024/03/03 08:30:11;;;;;;;0.00;0.00;;;25.30;43.50;;;;;;5048329;28;20231;-44
2024/03/03 08:32:42;;;;;;;0.00;0.00;;;25.20;43.50;;;;;;5051474;28;20195;-45
2024/03/03 08:35:13;;;;;;;0.00;0.00;;;25.20;43.50;;;;;;5048141;28;20554;-44
2024/03/03 08:37:45;;;;;;;0.05;0.05;;;25.20;43.50;;;;;;5051913;23;20216;-41
2024/03/03 08:40:19;;;;;;;0.00;0.00;;;25.20;43.50;;;;;;5006298;28;20221;-39
2024/03/03 08:42:50;;;;;;;0.03;0.03;;;25.10;43.40;;;;;;4988111;28;20201;-38
2024/03/03 08:45:21;;;;;;;0.00;0.00;;;25.10;43.40;;;;;;4991263;28;20200;-44
2024/03/03 08:47:52;;;;;;;0.00;0.00;;;25.10;43.40;;;;;;5007864;28;20288;-43
2024/03/03 08:50:23;;;;;;;0.00;0.00;;;25.10;43.50;;;;;;5008141;28;20228;-43
2024/03/03 08:52:53;;;;;;;0.00;0.00;;;25.10;43.50;;;;;;5007877;28;20642;-41
2024/03/03 08:55:26;;;;;;;0.00;0.00;;;25.10;43.50;;;;;;5006480;28;20197;-43
2024/03/03 08:57:56;;;;;;;0.00;0.00;;;25.10;43.50;;;;;;5007650;28;20212;-41
2024/03/03 09:00:27;;;;;;;0.00;0.00;;;25.10;43.50;;;;;;5006661;28;20227;-43
2024/03/03 09:02:58;;;;;;;0.00;0.00;;;25.10;43.50;;;;;;5007705;28;20204;-42
2024/03/03 09:05:29;;;;;;;0.00;0.00;;;25.00;43.40;;;;;;5007496;28;20204;-46
2024/03/03 09:08:00;;;;;;;0.00;0.00;;;25.00;43.40;;;;;;5007450;28;20193;-47
2024/03/03 09:10:33;;;;;;;0.00;0.00;;;25.00;43.50;;;;;;5007048;28;20248;-46
2024/03/03 09:13:03;;;;;;;0.00;0.00;;;25.00;43.40;;;;;;5007473;28;20197;-44
2024/03/03 09:15:34;;;;;;;0.00;0.00;;;25.00;43.40;;;;;;5007544;28;20556;-41
2024/03/03 09:18:05;;;;;;;0.10;0.10;;;25.00;43.30;;;;;;5006763;28;20205;-44
2024/03/03 09:20:36;;;;;;;0.00;0.00;;;24.90;43.30;;;;;;5007344;28;20648;-46
2024/03/03 09:23:07;;;;;;;0.10;0.10;;;24.90;43.30;;;;;;5007548;28;20202;-48
2024/03/03 09:25:39;;;;;;;0.00;0.00;;;24.90;43.30;;;;;;5007117;28;20659;-44
2024/03/03 09:28:10;;;;;;;0.00;0.00;;;24.90;43.30;;;;;;5009475;28;20205;-45
2024/03/03 09:30:41;;;;;;;0.00;0.00;;;24.90;43.30;;;;;;5010716;28;20227;-42
2024/03/03 09:33:12;;;;;;;0.10;0.10;;;24.90;43.30;;;;;;5010881;28;20196;-42
2024/03/03 09:35:42;;;;;;;0.00;0.00;;;24.90;43.30;;;;;;5010898;28;20193;-42
2024/03/03 09:38:13;;;;;;;0.05;0.05;;;24.80;43.20;;;;;;5010422;28;20204;-43
2024/03/03 09:40:47;;;;;;;0.00;0.00;;;24.80;43.20;;;;;;5009920;28;20548;-41
2024/03/03 09:43:19;;;;;;;0.00;0.00;;;24.80;43.20;;;;;;5010687;28;20193;-42
2024/03/03 09:45:52;;;;;;;0.10;0.10;;;24.80;43.10;;;;;;5009672;28;20673;-45
2024/03/03 09:48:24;;;;;;;0.00;0.00;;;24.80;43.10;;;;;;5009829;28;20201;-42
2024/03/03 09:50:58;;;;;;;0.00;0.00;;;24.70;43.10;;;;;;5010550;28;20216;-46
2024/03/03 09:53:29;;;;;;;0.00;0.00;;;24.70;43.10;;;;;;5010658;28;20212;-43
2024/03/03 09:56:04;;;;;;;0.00;0.00;;;24.70;43.00;;;;;;5009874;28;20201;-45
2024/03/03 09:58:35;;;;;;;0.00;0.00;;;24.70;43.00;;;;;;5010609;28;20208;-43
2024/03/03 10:01:06;;;;;;;0.00;0.00;;;24.70;43.00;;;;;;5010211;28;20705;-41
2024/03/03 10:03:38;;;;;;;0.00;0.00;;;24.70;43.00;;;;;;5010077;28;20624;-43
2024/03/03 10:06:13;;;;;;;0.00;0.00;;;24.70;43.00;;;;;;5010778;28;20197;-44
2024/03/03 10:08:44;;;;;;;0.00;0.00;;;24.60;42.80;;;;;;5010644;28;20620;-46
2024/03/03 10:11:21;;;;;;;0.00;0.00;;;24.60;42.80;;;;;;5009927;28;20231;-43
2024/03/03 10:13:52;;;;;;;0.00;0.00;;;24.60;42.80;;;;;;5009735;28;20242;-41
2024/03/03 10:16:23;;;;;;;0.00;0.00;;;24.60;42.80;;;;;;5010799;28;20598;-40
2024/03/03 10:19:03;;;;;;;0.00;0.00;;;24.60;42.80;;;;;;5009105;28;20223;-44
2024/03/03 10:21:36;;;;;;;0.00;0.00;;;24.50;42.70;;;;;;5010588;28;20216;-46
2024/03/03 10:24:29;;;;;;;0.00;0.00;;;24.50;42.70;;;;;;5009394;28;20220;-42
2024/03/03 10:27:02;;;;;;;0.00;0.00;;;24.50;42.70;;;;;;5006717;28;20284;-40
2024/03/03 10:29:33;;;;;;;0.00;0.00;;;24.50;42.70;;;;;;5009934;28;20631;-40
2024/03/03 10:32:11;;;;;;;0.00;0.00;;;24.50;42.70;;;;;;5012170;28;20225;-50
2024/03/03 10:34:43;;;;;;;0.00;0.00;;;24.50;42.80;;;;;;5013822;28;20208;-47
2024/03/03 10:37:20;;;;;;;0.00;0.00;;;24.40;42.70;;;;;;5013518;28;20232;-47
2024/03/03 10:39:53;;;;;;;0.00;0.00;;;24.40;42.60;;;;;;5011900;28;20578;-49
2024/03/03 10:42:26;;;;;;;0.03;0.03;;;24.40;42.50;;;;;;5009655;28;20676;-50
2024/03/03 10:44:57;;;;;;;0.00;0.00;;;24.40;42.50;;;;;;5012770;28;20185;-50
2024/03/03 10:47:28;;;;;;;0.00;0.00;;;24.40;42.50;;;;;;5010704;28;20444;-47
2024/03/03 10:49:59;;;;;;;0.00;0.00;;;24.40;42.60;;;;;;5012491;28;20219;-54
2024/03/03 10:52:30;;;;;;;0.00;0.00;;;24.30;42.50;;;;;;5012542;28;20221;-49
2024/03/03 10:55:01;;;;;;;0.00;0.00;;;24.30;42.50;;;;;;5012360;28;20209;-52
2024/03/03 10:57:35;;;;;;;0.00;0.00;;;24.30;42.50;;;;;;5012234;28;20221;-44
2024/03/03 11:00:11;;;;;;;0.00;0.00;;;24.30;42.50;;;;;;5009971;28;20204;-44
2024/03/03 11:02:43;;;;;;;0.00;0.00;;;24.30;42.50;;;;;;5012308;28;20192;-47
2024/03/03 11:05:15;;;;;;;0.00;0.00;;;24.30;42.50;;;;;;5012495;28;20193;-44
2024/03/03 11:07:47;;;;;;;0.00;0.00;;;24.30;42.50;;;;;;5009835;28;20197;-49
2024/03/03 11:10:18;;;;;;;0.00;0.00;;;24.30;42.50;;;;;;5011973;28;20213;-47
2024/03/03 11:12:53;;;;;;;0.10;0.10;;;24.20;42.40;;;;;;5010081;28;20224;-46
2024/03/03 11:15:24;;;;;;;0.00;0.00;;;24.20;42.50;;;;;;5010618;28;20193;-48
2024/03/03 11:18:03;;;;;;;0.00;0.00;;;24.20;42.50;;;;;;5012105;28;20197;-50
2024/03/03 11:20:37;;;;;;;0.00;0.00;;;24.20;42.50;;;;;;5011888;28;20456;-46
2024/03/03 11:23:18;;;;;;;0.00;0.00;;;24.20;42.50;;;;;;5011931;28;20192;-44
2024/03/03 11:26:02;;;;;;;0.00;0.00;;;24.20;42.40;;;;;;5010867;28;20224;-48
2024/03/03 11:28:37;;;;;;;0.10;0.10;;;24.20;42.50;;;;;;5011080;28;20549;-48
2024/03/03 11:31:07;;;;;;;0.00;0.00;;;24.20;42.50;;;;;;5012103;28;20208;-50
2024/03/03 11:33:39;;;;;;;0.00;0.00;;;24.20;42.50;;;;;;5009680;28;20196;-44
2024/03/03 11:36:11;;;;;;;0.00;0.00;;;24.10;42.40;;;;;;5011804;28;20197;-45
2024/03/03 11:38:46;;;;;;;0.00;0.00;;;24.10;43.10;;;;;;5010326;28;20223;-46
2024/03/03 11:41:20;;;;;;;0.00;0.00;;;24.10;42.50;;;;;;5009313;28;20208;-47
2024/03/03 11:43:54;;;;;;;0.10;0.10;;;24.10;42.50;;;;;;5011878;28;20188;-41
2024/03/03 11:46:48;;;;;;;0.00;0.00;;;24.10;42.50;;;;;;5010626;28;20664;-48
2024/03/03 11:49:21;;;;;;;0.00;0.00;;;24.00;42.40;;;;;;5006403;28;20244;-50
2024/03/03 11:51:52;;;;;;;0.00;0.00;;;24.10;42.50;;;;;;5010333;28;20229;-51
2024/03/03 11:54:37;;;;;;;0.00;0.00;;;24.00;42.40;;;;;;5011836;28;20209;-48
2024/03/03 11:57:09;;;;;;;0.00;0.00;;;24.00;42.40;;;;;;5011990;28;20203;-46
2024/03/03 11:59:48;;;;;;;0.00;0.00;;;24.00;42.50;;;;;;5011733;28;20675;-48
2024/03/03 12:02:19;;;;;;;0.08;0.08;;;24.00;42.50;;;;;;5012076;28;20207;-49
2024/03/03 12:04:50;;;;;;;0.00;0.00;;;24.00;42.50;;;;;;5011884;28;20215;-50
2024/03/03 12:07:22;;;;;;;0.05;0.05;;;23.90;43.10;;;;;;5011942;28;20204;-47
2024/03/03 12:09:53;;;;;;;0.00;0.00;;;24.00;42.50;;;;;;5011846;28;20267;-52
2024/03/03 12:12:23;;;;;;;0.00;0.00;;;23.90;42.50;;;;;;5011285;28;20224;-48
2024/03/03 12:14:56;;;;;;;0.10;0.10;;;23.90;42.50;;;;;;5011608;28;20204;-41
2024/03/03 12:17:27;;;;;;;0.10;0.10;;;23.90;42.50;;;;;;5011801;28;20201;-42
2024/03/03 12:19:57;;;;;;;0.00;0.00;;;23.90;42.50;;;;;;5011826;28;20617;-47
2024/03/03 12:22:28;;;;;;;0.00;0.00;;;23.90;42.50;;;;;;5011822;28;20676;-44
2024/03/03 12:25:00;;;;;;;0.00;0.00;;;23.90;42.60;;;;;;5011903;28;20215;-44
2024/03/03 12:27:31;;;;;;;0.10;0.10;;;23.80;42.50;;;;;;5011423;28;20192;-45
2024/03/03 12:30:09;;;;;;;0.10;0.10;;;23.80;42.50;;;;;;5010985;28;20712;-45
2024/03/03 12:32:40;;;;;;;0.00;0.00;;;23.80;42.50;;;;;;5011480;28;20319;-45
2024/03/03 12:35:11;;;;;;;0.10;0.10;;;23.90;42.60;;;;;;5011164;28;20189;-48
2024/03/03 12:37:42;;;;;;;0.00;0.00;;;23.80;42.50;;;;;;5012097;28;20200;-46
2024/03/03 12:40:15;;;;;;;0.10;0.10;;;23.80;42.60;;;;;;5011215;28;20232;-44
2024/03/03 12:42:46;;;;;;;0.10;0.10;;;23.80;42.60;;;;;;5011710;28;20232;-50
2024/03/03 12:45:19;;;;;;;0.00;0.00;;;23.80;42.60;;;;;;5011416;28;20596;-46
2024/03/03 12:47:51;;;;;;;0.10;0.10;;;23.80;42.60;;;;;;5011585;28;20216;-43
2024/03/03 12:50:22;;;;;;;0.00;0.00;;;23.80;42.60;;;;;;5011432;28;20217;-48
2024/03/03 12:52:54;;;;;;;0.00;0.00;;;23.80;42.60;;;;;;5010880;28;20228;-43
2024/03/03 12:55:29;;;;;;;0.00;0.00;;;23.80;42.60;;;;;;5011259;28;20201;-44
2024/03/03 12:58:02;;;;;;;0.00;0.00;;;23.70;42.50;;;;;;5010779;28;20192;-47
2024/03/03 13:00:34;;;;;;;0.00;0.00;;;23.70;42.50;;;;;;5011445;28;20227;-51
2024/03/03 13:03:05;;;;;;;0.10;0.10;;;23.70;42.60;;;;;;5013323;28;20319;-42
2024/03/03 13:05:39;;;;;;;0.00;0.00;;;23.70;42.60;;;;;;5014767;28;20204;-49
2024/03/03 13:08:14;;;;;;;0.00;0.00;;;23.70;42.50;;;;;;5014804;28;20247;-46
2024/03/03 13:10:45;;;;;;;0.03;0.03;;;23.70;42.60;;;;;;5014600;28;20651;-44